Time;durP1;ratioP1;P1;durP2;ratioP2;P2;SDS_P1;SDS_P2;PMS_P1;PMS_P2;Temp;Humidity;BMP_temperature;BMP_pressure;BME280_temperature;BME280_humidity;BME280_pressure;Samples;Min_cycle;Max_cycle;Signal;HPM_P1;HPM_P2
2023/08/30 00:00:59;;;;;;;17.67;11.32;;;12.80;99.90;;;;;;4862107;28;90375;-76
2023/08/30 00:03:25;;;;;;;17.65;10.27;;;12.80;99.90;;;;;;4880058;28;88079;-75
2023/08/30 00:05:51;;;;;;;16.08;11.88;;;12.80;99.90;;;;;;4859786;28;89072;-76
2023/08/30 00:08:19;;;;;;;21.08;13.18;;;12.70;99.90;;;;;;4879174;28;87599;-76
2023/08/30 00:10:48;;;;;;;18.95;13.48;;;12.70;99.90;;;;;;4877447;28;88864;-75
2023/08/30 00:13:14;;;;;;;19.13;13.77;;;12.70;99.90;;;;;;4879605;28;88250;-76
2023/08/30 00:15:40;;;;;;;23.08;16.00;;;12.70;99.90;;;;;;4882926;28;88111;-76
2023/08/30 00:18:08;;;;;;;22.75;14.73;;;12.70;99.90;;;;;;4882640;28;87608;-75
2023/08/30 00:20:34;;;;;;;32.78;16.73;;;12.70;99.90;;;;;;4882384;28;87688;-76
2023/08/30 00:23:00;;;;;;;28.88;16.05;;;12.70;99.90;;;;;;4884544;28;88602;-75
2023/08/30 00:25:26;;;;;;;25.80;16.45;;;12.60;99.90;;;;;;4882065;28;92419;-75
2023/08/30 00:27:54;;;;;;;22.42;15.82;;;12.60;99.90;;;;;;4865609;28;87341;-76
2023/08/30 00:30:20;;;;;;;29.42;16.55;;;12.60;99.90;;;;;;4882982;28;87964;-76
2023/08/30 00:32:46;;;;;;;27.55;18.60;;;12.60;99.90;;;;;;4881824;28;88438;-75
2023/08/30 00:35:12;;;;;;;26.92;18.60;;;12.70;99.90;;;;;;4883590;28;88320;-75
2023/08/30 00:37:38;;;;;;;24.88;17.92;;;12.70;99.90;;;;;;4882215;28;87617;-75
2023/08/30 00:40:05;;;;;;;26.65;18.48;;;12.70;99.90;;;;;;4885875;28;87241;-75
2023/08/30 00:42:31;;;;;;;26.58;18.90;;;12.70;99.90;;;;;;4883463;28;91428;-75
2023/08/30 00:44:57;;;;;;;25.92;18.60;;;12.80;99.90;;;;;;4884960;28;87725;-76
2023/08/30 00:47:23;;;;;;;26.70;17.58;;;12.80;99.90;;;;;;4882079;28;89126;-75
2023/08/30 00:49:49;;;;;;;25.85;18.20;;;12.80;99.90;;;;;;4867596;28;89240;-76
2023/08/30 00:52:15;;;;;;;30.60;17.63;;;12.80;99.90;;;;;;4866266;28;91805;-76
2023/08/30 00:54:41;;;;;;;26.75;17.23;;;12.80;99.90;;;;;;4884142;28;88592;-75
2023/08/30 00:57:08;;;;;;;30.65;18.05;;;12.90;99.90;;;;;;4883801;28;87322;-76
2023/08/30 00:59:34;;;;;;;30.38;18.33;;;12.90;99.90;;;;;;4884440;28;87583;-76
2023/08/30 01:02:01;;;;;;;26.58;18.48;;;12.90;99.90;;;;;;4884455;28;88882;-75
2023/08/30 01:04:27;;;;;;;26.63;18.02;;;12.90;99.90;;;;;;4885112;28;88090;-75
2023/08/30 01:06:53;;;;;;;24.27;17.15;;;13.00;99.90;;;;;;4884191;28;88212;-76
2023/08/30 01:09:19;;;;;;;26.85;18.05;;;13.00;99.90;;;;;;4883998;28;87431;-75
2023/08/30 01:11:58;;;;;;;27.52;17.60;;;13.00;99.90;;;;;;4866196;28;92224;-75
2023/08/30 01:14:47;;;;;;;23.73;17.13;;;13.00;99.90;;;;;;4875090;28;90667;-75
2023/08/30 01:17:16;;;;;;;29.33;17.77;;;13.00;99.90;;;;;;4866566;28;87871;-75
2023/08/30 01:20:15;;;;;;;24.30;16.85;;;13.10;99.90;;;;;;4885908;28;87343;-75
2023/08/30 01:23:05;;;;;;;28.38;18.63;;;13.10;99.90;;;;;;4876059;28;91409;-75
2023/08/30 01:26:06;;;;;;;24.88;18.13;;;13.20;99.90;;;;;;4865405;28;89947;-76
2023/08/30 01:28:41;;;;;;;22.52;17.10;;;13.20;99.90;;;;;;4834384;29;87565;-75
2023/08/30 01:31:11;;;;;;;22.85;17.98;;;13.20;99.90;;;;;;4829103;28;90762;-76
2023/08/30 01:33:44;;;;;;;23.88;17.67;;;13.30;99.90;;;;;;4884129;28;91568;-75
2023/08/30 01:36:10;;;;;;;27.02;18.02;;;13.30;99.90;;;;;;4884594;28;91279;-75
2023/08/30 01:38:40;;;;;;;25.88;17.88;;;13.30;99.90;;;;;;4867271;28;88618;-75
2023/08/30 01:41:07;;;;;;;28.98;18.30;;;13.30;99.90;;;;;;4885181;28;87848;-75
2023/08/30 01:43:33;;;;;;;28.88;18.27;;;13.30;99.90;;;;;;4883555;28;88581;-76
2023/08/30 01:46:00;;;;;;;29.45;18.50;;;13.30;99.90;;;;;;4885715;28;88600;-75
2023/08/30 01:48:29;;;;;;;25.65;18.17;;;13.40;99.90;;;;;;4866832;28;87356;-74
2023/08/30 01:50:58;;;;;;;23.17;18.65;;;13.40;99.90;;;;;;4867445;28;90599;-74
2023/08/30 01:53:25;;;;;;;26.25;18.13;;;13.40;99.90;;;;;;4883640;28;91387;-75
2023/08/30 01:55:51;;;;;;;24.58;18.05;;;13.50;99.90;;;;;;4882752;28;87805;-75
2023/08/30 01:58:20;;;;;;;25.38;18.75;;;13.50;99.90;;;;;;4882699;28;87458;-74
2023/08/30 02:00:46;;;;;;;26.02;18.98;;;13.50;99.90;;;;;;4886372;28;87509;-75
2023/08/30 02:03:14;;;;;;;29.05;18.65;;;13.50;99.90;;;;;;4867763;28;91158;-75
2023/08/30 02:06:02;;;;;;;27.38;19.23;;;13.60;99.90;;;;;;4885196;28;88154;-75
2023/08/30 02:08:41;;;;;;;30.20;17.70;;;13.60;99.90;;;;;;4876430;28;87749;-75
2023/08/30 02:11:35;;;;;;;26.35;18.38;;;13.60;99.90;;;;;;4880757;28;87821;-76
2023/08/30 02:14:17;;;;;;;27.88;19.45;;;13.60;99.90;;;;;;4866395;28;90027;-75
2023/08/30 02:16:47;;;;;;;30.08;18.17;;;13.70;99.90;;;;;;4882036;28;88343;-76
2023/08/30 02:19:16;;;;;;;27.05;17.75;;;13.70;99.90;;;;;;4882897;28;87467;-74
2023/08/30 02:21:45;;;;;;;21.98;17.05;;;13.80;99.90;;;;;;4886600;28;86929;-75
2023/08/30 02:24:11;;;;;;;24.80;18.27;;;13.80;99.90;;;;;;4882050;28;87844;-76
2023/08/30 02:26:37;;;;;;;22.85;16.38;;;13.80;99.90;;;;;;4883330;28;87599;-76
2023/08/30 02:29:03;;;;;;;30.80;18.75;;;13.90;99.90;;;;;;4880893;28;88576;-75
2023/08/30 02:31:29;;;;;;;24.65;18.10;;;13.90;99.90;;;;;;4881608;28;88205;-75
2023/08/30 02:33:55;;;;;;;24.77;17.10;;;14.00;99.90;;;;;;4882786;28;88717;-75
2023/08/30 02:36:20;;;;;;;24.25;17.27;;;14.00;99.90;;;;;;4880899;28;88853;-76
2023/08/30 02:38:49;;;;;;;23.02;16.83;;;14.00;99.90;;;;;;4880565;28;87547;-75
2023/08/30 02:41:14;;;;;;;27.90;18.20;;;14.10;99.90;;;;;;4880384;28;87299;-75
2023/08/30 02:43:40;;;;;;;24.83;17.95;;;14.10;99.90;;;;;;4880780;28;87724;-75
2023/08/30 02:46:05;;;;;;;30.95;19.13;;;14.10;99.90;;;;;;4881590;28;88452;-76
2023/08/30 02:48:34;;;;;;;23.08;17.33;;;14.10;99.90;;;;;;4883773;28;87623;-76
2023/08/30 02:51:00;;;;;;;25.95;17.73;;;14.20;99.90;;;;;;4863208;28;90662;-76
2023/08/30 02:53:26;;;;;;;27.23;16.95;;;14.20;99.90;;;;;;4881580;28;89328;-76
2023/08/30 02:55:55;;;;;;;23.77;16.13;;;14.20;99.90;;;;;;4882763;28;88887;-76
2023/08/30 02:58:21;;;;;;;24.60;18.27;;;14.30;99.90;;;;;;4864646;28;87283;-76
2023/08/30 03:00:47;;;;;;;24.63;17.02;;;14.30;99.90;;;;;;4866094;28;88976;-76
2023/08/30 03:03:13;;;;;;;33.45;19.35;;;14.30;99.90;;;;;;4881551;28;88154;-75
2023/08/30 03:05:41;;;;;;;26.85;18.80;;;14.30;99.90;;;;;;4881312;28;88174;-76
2023/08/30 03:08:07;;;;;;;27.23;18.90;;;14.40;99.90;;;;;;4882128;28;87822;-74
2023/08/30 03:10:32;;;;;;;27.02;18.08;;;14.30;99.90;;;;;;4880288;28;87000;-75
2023/08/30 03:12:58;;;;;;;27.23;18.38;;;14.40;99.90;;;;;;4880643;28;87892;-76
2023/08/30 03:15:24;;;;;;;27.05;19.80;;;14.40;99.90;;;;;;4880458;28;87808;-76
2023/08/30 03:17:49;;;;;;;38.88;21.08;;;14.40;99.90;;;;;;4882854;28;88367;-75
2023/08/30 03:20:15;;;;;;;31.33;19.33;;;14.40;99.90;;;;;;4882009;28;88236;-76
2023/08/30 03:22:41;;;;;;;33.78;21.33;;;14.40;99.90;;;;;;4881668;28;89024;-75
2023/08/30 03:25:09;;;;;;;30.10;20.38;;;14.40;99.90;;;;;;4881970;28;88751;-75
2023/08/30 03:27:35;;;;;;;27.52;20.13;;;14.30;99.90;;;;;;4882423;28;87564;-74
2023/08/30 03:30:02;;;;;;;30.52;20.55;;;14.40;99.90;;;;;;4880401;28;87883;-75
2023/08/30 03:32:28;;;;;;;30.65;20.55;;;14.40;99.90;;;;;;4880304;28;88429;-74
2023/08/30 03:34:53;;;;;;;35.03;21.40;;;14.40;99.90;;;;;;4878833;28;88007;-75
2023/08/30 03:37:19;;;;;;;32.58;20.92;;;14.40;99.90;;;;;;4881293;28;87807;-75
2023/08/30 03:39:47;;;;;;;30.52;21.23;;;14.40;99.90;;;;;;4882140;28;87459;-74
2023/08/30 03:42:13;;;;;;;28.80;20.45;;;14.40;99.90;;;;;;4878915;28;91383;-75
2023/08/30 03:44:39;;;;;;;34.75;21.63;;;14.40;99.90;;;;;;4881462;28;88227;-74
2023/08/30 03:47:05;;;;;;;29.85;20.15;;;14.40;99.90;;;;;;4881459;28;87267;-75
2023/08/30 03:49:31;;;;;;;26.20;19.33;;;14.40;99.90;;;;;;4881353;28;87702;-74
2023/08/30 03:51:59;;;;;;;31.10;21.48;;;14.40;99.90;;;;;;4881439;28;88210;-74
2023/08/30 03:54:25;;;;;;;30.50;21.23;;;14.40;99.90;;;;;;4862674;28;91178;-74
2023/08/30 03:56:51;;;;;;;30.02;21.15;;;14.40;99.90;;;;;;4878386;28;87602;-75
2023/08/30 03:59:19;;;;;;;32.30;20.65;;;14.40;99.90;;;;;;4880168;28;87547;-75
2023/08/30 04:01:45;;;;;;;34.35;21.48;;;14.50;99.90;;;;;;4861937;28;91786;-74
2023/08/30 04:04:11;;;;;;;29.92;20.73;;;14.50;99.90;;;;;;4879730;28;90815;-74
2023/08/30 04:06:37;;;;;;;30.88;19.92;;;14.50;99.90;;;;;;4878951;28;88196;-74
2023/08/30 04:09:02;;;;;;;27.00;19.60;;;14.50;99.90;;;;;;4861728;28;87942;-74
2023/08/30 04:11:28;;;;;;;30.40;20.50;;;14.50;99.90;;;;;;4882354;28;89007;-74
2023/08/30 04:13:54;;;;;;;26.27;19.75;;;14.50;99.90;;;;;;4881247;28;90645;-74
2023/08/30 04:16:19;;;;;;;31.30;21.13;;;14.50;99.90;;;;;;4881731;28;87552;-75
2023/08/30 04:18:45;;;;;;;26.63;19.30;;;14.50;99.90;;;;;;4867394;28;89437;-75
2023/08/30 04:21:11;;;;;;;31.13;20.95;;;14.50;99.90;;;;;;4883679;28;89155;-75
2023/08/30 04:23:37;;;;;;;31.42;20.30;;;14.60;99.90;;;;;;4884365;28;88312;-75
2023/08/30 04:26:03;;;;;;;27.13;18.85;;;14.60;99.90;;;;;;4883984;28;87720;-75
2023/08/30 04:28:28;;;;;;;28.58;20.05;;;14.60;99.90;;;;;;4882422;28;87738;-75
2023/08/30 04:31:00;;;;;;;36.42;20.20;;;14.70;99.90;;;;;;4868344;28;92291;-75
2023/08/30 04:33:26;;;;;;;31.70;20.13;;;14.70;99.90;;;;;;4867098;28;91541;-76
2023/08/30 04:36:05;;;;;;;28.90;19.00;;;14.70;99.90;;;;;;4866922;28;87925;-75
2023/08/30 04:38:30;;;;;;;34.15;20.42;;;14.70;99.90;;;;;;4865144;28;88251;-76
2023/08/30 04:40:59;;;;;;;29.67;19.48;;;14.70;99.90;;;;;;4884750;28;89160;-75
2023/08/30 04:43:25;;;;;;;25.42;18.45;;;14.70;99.90;;;;;;4883368;28;88544;-75
2023/08/30 04:45:50;;;;;;;29.20;20.20;;;14.70;99.90;;;;;;4868692;28;87661;-76
2023/08/30 04:48:16;;;;;;;29.05;18.58;;;14.70;99.90;;;;;;4885050;28;86978;-75
2023/08/30 04:50:42;;;;;;;29.05;19.80;;;14.70;99.90;;;;;;4883800;28;88374;-75
2023/08/30 04:53:10;;;;;;;30.85;18.63;;;14.70;99.90;;;;;;4882481;28;87687;-75
2023/08/30 04:55:35;;;;;;;24.98;17.13;;;14.70;99.90;;;;;;4881859;28;88694;-75
2023/08/30 04:58:02;;;;;;;28.92;18.38;;;14.60;99.90;;;;;;4884219;28;87797;-75
2023/08/30 05:00:28;;;;;;;27.83;18.80;;;14.60;99.90;;;;;;4863728;28;90155;-76
2023/08/30 05:02:54;;;;;;;27.92;17.05;;;14.60;99.90;;;;;;4864068;28;89473;-75
2023/08/30 05:05:19;;;;;;;25.40;16.77;;;14.60;99.90;;;;;;4882735;28;87483;-75
2023/08/30 05:07:45;;;;;;;25.13;16.88;;;14.50;99.90;;;;;;4882501;28;88133;-75
2023/08/30 05:10:11;;;;;;;23.45;16.52;;;14.50;99.90;;;;;;4884980;28;88619;-75
2023/08/30 05:12:37;;;;;;;24.73;15.25;;;14.50;99.90;;;;;;4883082;28;88331;-75
2023/08/30 05:15:03;;;;;;;19.85;14.98;;;14.50;99.90;;;;;;4883521;28;87577;-75
2023/08/30 05:17:32;;;;;;;20.75;14.23;;;14.50;99.90;;;;;;4879987;28;88493;-75
2023/08/30 05:19:58;;;;;;;19.35;14.15;;;14.50;99.90;;;;;;4864147;28;92595;-77
2023/08/30 05:22:24;;;;;;;20.17;15.30;;;14.40;99.90;;;;;;4866291;28;90184;-75
2023/08/30 05:24:50;;;;;;;19.73;12.85;;;14.40;99.90;;;;;;4884924;28;87423;-75
2023/08/30 05:27:17;;;;;;;18.65;12.30;;;14.40;99.90;;;;;;4885676;28;87221;-75
2023/08/30 05:29:43;;;;;;;20.35;12.20;;;14.40;99.90;;;;;;4864375;28;92365;-75
2023/08/30 05:32:09;;;;;;;17.65;12.35;;;14.40;99.90;;;;;;4881661;28;88619;-75
2023/08/30 05:34:37;;;;;;;19.10;12.57;;;14.50;99.90;;;;;;4879693;28;87595;-75
2023/08/30 05:37:03;;;;;;;20.10;13.27;;;14.50;99.90;;;;;;4881546;28;88421;-75
2023/08/30 05:39:29;;;;;;;19.23;12.02;;;14.50;99.90;;;;;;4861823;28;91863;-75
2023/08/30 05:41:57;;;;;;;20.17;11.32;;;14.50;99.90;;;;;;4880416;28;87808;-75
2023/08/30 05:44:23;;;;;;;16.52;11.27;;;14.50;99.90;;;;;;4880251;28;92001;-75
2023/08/30 05:46:49;;;;;;;15.60;11.85;;;14.50;99.90;;;;;;4880413;28;87663;-75
2023/08/30 05:49:15;;;;;;;19.42;12.48;;;14.50;99.90;;;;;;4878759;28;88952;-75
2023/08/30 05:51:41;;;;;;;14.57;11.27;;;14.50;99.90;;;;;;4880756;28;89005;-75
2023/08/30 05:54:06;;;;;;;20.02;12.10;;;14.50;99.90;;;;;;4880395;28;88019;-75
2023/08/30 05:56:32;;;;;;;19.90;11.18;;;14.50;99.90;;;;;;4877109;28;90433;-75
2023/08/30 05:58:58;;;;;;;16.58;11.45;;;14.60;99.90;;;;;;4880289;28;88711;-75
2023/08/30 06:01:24;;;;;;;20.10;11.27;;;14.60;99.90;;;;;;4880095;28;87589;-75
2023/08/30 06:03:50;;;;;;;15.02;10.85;;;14.60;99.90;;;;;;4862526;28;87359;-75
2023/08/30 06:06:18;;;;;;;14.20;10.70;;;14.60;99.90;;;;;;4879241;28;87996;-74
2023/08/30 06:08:44;;;;;;;19.17;11.20;;;14.60;99.90;;;;;;4879488;28;90086;-75
2023/08/30 06:11:10;;;;;;;11.50;8.85;;;14.60;99.90;;;;;;4879285;28;89500;-75
2023/08/30 06:13:36;;;;;;;13.70;9.32;;;14.60;99.90;;;;;;4881286;28;87514;-75
2023/08/30 06:16:02;;;;;;;14.50;9.45;;;14.60;99.90;;;;;;4881019;28;87671;-75
2023/08/30 06:18:30;;;;;;;15.60;8.73;;;14.70;99.90;;;;;;4862329;28;90703;-75
2023/08/30 06:20:56;;;;;;;13.90;8.85;;;14.70;99.70;;;;;;4881998;28;88084;-75
2023/08/30 06:23:22;;;;;;;16.27;6.57;;;14.70;99.60;;;;;;4861563;28;87835;-74
2023/08/30 06:25:57;;;;;;;12.75;6.20;;;14.70;99.10;;;;;;4880537;28;87443;-75
2023/08/30 06:28:23;;;;;;;10.25;5.82;;;14.70;99.30;;;;;;4879478;28;88400;-75
2023/08/30 06:30:50;;;;;;;6.82;5.15;;;14.70;98.90;;;;;;4862595;28;90456;-75
2023/08/30 06:33:16;;;;;;;9.05;4.82;;;14.70;98.80;;;;;;4879101;28;89012;-74
2023/08/30 06:35:42;;;;;;;5.75;3.95;;;14.70;98.70;;;;;;4860986;28;90003;-75
2023/08/30 06:38:08;;;;;;;9.40;4.53;;;14.70;98.80;;;;;;4861560;28;90295;-74
2023/08/30 06:40:35;;;;;;;9.27;5.65;;;14.70;99.10;;;;;;4879793;28;88367;-76
2023/08/30 06:43:00;;;;;;;6.13;4.20;;;14.70;99.30;;;;;;4880910;28;87445;-76
2023/08/30 06:45:26;;;;;;;6.57;4.70;;;14.80;99.20;;;;;;4880053;28;87665;-76
2023/08/30 06:47:52;;;;;;;8.50;4.00;;;14.80;99.70;;;;;;4880228;28;88519;-76
2023/08/30 06:50:18;;;;;;;7.40;5.05;;;14.80;99.10;;;;;;4880950;28;88215;-75
2023/08/30 06:52:44;;;;;;;7.45;4.35;;;14.80;99.40;;;;;;4880836;28;87514;-75
2023/08/30 06:55:10;;;;;;;9.90;4.70;;;14.80;99.20;;;;;;4881510;28;87937;-76
2023/08/30 06:57:36;;;;;;;8.50;3.85;;;14.80;99.30;;;;;;4880060;28;89095;-75
2023/08/30 07:00:07;;;;;;;9.45;4.50;;;14.80;99.30;;;;;;4878118;28;89026;-76
2023/08/30 07:02:37;;;;;;;5.82;4.32;;;14.80;99.70;;;;;;4880574;28;87647;-76
2023/08/30 07:05:04;;;;;;;8.68;4.72;;;14.90;99.40;;;;;;4878818;28;87850;-77
2023/08/30 07:07:31;;;;;;;7.45;4.07;;;14.90;99.60;;;;;;4881082;28;87918;-77
2023/08/30 07:09:57;;;;;;;7.03;4.22;;;14.90;99.30;;;;;;4881762;28;88409;-77
2023/08/30 07:12:22;;;;;;;9.63;4.78;;;14.90;99.40;;;;;;4862407;28;87204;-76
2023/08/30 07:14:48;;;;;;;5.30;4.22;;;14.90;99.60;;;;;;4880947;28;87929;-77
2023/08/30 07:17:14;;;;;;;9.63;4.10;;;15.00;99.60;;;;;;4863350;28;91603;-76
2023/08/30 07:19:39;;;;;;;7.63;4.10;;;15.10;99.70;;;;;;4881457;28;88399;-77
2023/08/30 07:22:07;;;;;;;6.57;3.75;;;15.10;98.80;;;;;;4863265;28;88809;-77
2023/08/30 07:24:33;;;;;;;7.88;3.90;;;15.20;99.10;;;;;;4881262;28;87302;-77
2023/08/30 07:26:58;;;;;;;5.13;3.30;;;15.30;99.10;;;;;;4864358;28;90303;-77
2023/08/30 07:29:24;;;;;;;8.65;3.60;;;15.30;98.10;;;;;;4861512;28;91469;-77
2023/08/30 07:31:53;;;;;;;8.38;3.83;;;15.30;98.20;;;;;;4865214;28;87502;-76
2023/08/30 07:34:19;;;;;;;6.70;3.80;;;15.30;98.40;;;;;;4866405;28;89726;-76
2023/08/30 07:36:45;;;;;;;5.88;3.60;;;15.30;98.40;;;;;;4865197;28;91963;-76
2023/08/30 07:39:10;;;;;;;9.48;3.80;;;15.40;98.30;;;;;;4880126;28;88542;-77
2023/08/30 07:41:36;;;;;;;6.60;3.58;;;15.40;98.20;;;;;;4867252;28;87711;-76
2023/08/30 07:44:02;;;;;;;7.07;3.47;;;15.40;98.00;;;;;;4877519;28;87527;-75
2023/08/30 07:46:28;;;;;;;7.40;4.28;;;15.40;98.10;;;;;;4859562;28;92974;-77
2023/08/30 07:48:55;;;;;;;6.68;3.30;;;15.60;99.00;;;;;;4859395;28;91232;-76
2023/08/30 07:51:21;;;;;;;7.45;3.40;;;15.60;98.40;;;;;;4861822;28;87708;-76
2023/08/30 07:53:46;;;;;;;4.75;2.95;;;15.60;97.70;;;;;;4873828;28;89964;-77
2023/08/30 07:56:12;;;;;;;6.30;3.30;;;15.70;98.10;;;;;;4881859;28;89419;-77
2023/08/30 07:58:38;;;;;;;8.10;3.25;;;15.70;98.20;;;;;;4863628;28;91075;-76
2023/08/30 08:01:04;;;;;;;4.68;3.00;;;15.70;97.50;;;;;;4863907;28;87650;-77
2023/08/30 08:03:29;;;;;;;7.90;3.67;;;15.70;97.30;;;;;;4861888;28;89138;-76
2023/08/30 08:05:55;;;;;;;10.57;3.53;;;15.70;97.90;;;;;;4879066;28;88703;-76
2023/08/30 08:08:21;;;;;;;4.30;3.13;;;15.70;98.50;;;;;;4880471;28;89393;-76
2023/08/30 08:10:46;;;;;;;5.80;3.63;;;15.80;98.00;;;;;;4862371;28;88715;-76
2023/08/30 08:13:12;;;;;;;7.40;3.60;;;15.80;98.50;;;;;;4862619;28;89484;-77
2023/08/30 08:15:38;;;;;;;5.70;3.25;;;15.80;98.40;;;;;;4879624;28;93617;-76
2023/08/30 08:18:04;;;;;;;6.60;4.05;;;15.80;98.60;;;;;;4879624;28;88265;-77
2023/08/30 08:20:33;;;;;;;6.60;3.85;;;15.80;99.00;;;;;;4863071;28;87299;-79
2023/08/30 08:22:59;;;;;;;14.15;4.88;;;15.70;99.50;;;;;;4859705;28;89437;-78
2023/08/30 08:25:24;;;;;;;9.32;4.72;;;15.60;99.90;;;;;;4858138;28;91759;-77
2023/08/30 08:27:53;;;;;;;10.88;4.55;;;15.60;99.90;;;;;;4860535;28;91161;-77
2023/08/30 08:30:20;;;;;;;11.35;5.25;;;15.50;99.90;;;;;;4878215;28;87632;-77
2023/08/30 08:32:47;;;;;;;9.48;5.00;;;15.40;99.90;;;;;;4877001;28;88123;-77
2023/08/30 08:35:13;;;;;;;8.35;5.07;;;15.30;99.90;;;;;;4857722;28;93023;-77
2023/08/30 08:37:39;;;;;;;9.27;4.90;;;15.20;99.90;;;;;;4878935;28;89515;-77
2023/08/30 08:40:08;;;;;;;8.90;4.65;;;15.20;99.90;;;;;;4879560;28;87499;-76
2023/08/30 08:42:35;;;;;;;12.73;5.18;;;15.10;99.90;;;;;;4878414;28;88289;-77
2023/08/30 08:45:04;;;;;;;9.70;4.97;;;15.10;99.90;;;;;;4858597;28;92173;-77
2023/08/30 08:47:33;;;;;;;10.63;4.90;;;15.10;99.90;;;;;;4858996;28;91497;-78
2023/08/30 08:50:03;;;;;;;9.82;4.53;;;15.10;99.90;;;;;;4877574;28;87854;-77
2023/08/30 08:52:29;;;;;;;8.60;4.45;;;15.10;99.90;;;;;;4859868;28;90731;-76
2023/08/30 08:54:55;;;;;;;9.82;4.63;;;15.10;99.90;;;;;;4861184;28;91658;-76
2023/08/30 08:57:21;;;;;;;10.40;5.45;;;15.10;99.90;;;;;;4881617;28;88457;-75
2023/08/30 08:59:47;;;;;;;11.80;4.80;;;15.10;99.90;;;;;;4862678;28;88607;-77
2023/08/30 09:02:14;;;;;;;15.65;5.70;;;15.00;99.90;;;;;;4881253;28;87656;-77
2023/08/30 09:04:40;;;;;;;7.82;5.28;;;14.90;99.90;;;;;;4863282;28;91880;-77
2023/08/30 09:07:06;;;;;;;13.70;5.97;;;14.90;99.90;;;;;;4882316;28;88121;-77
2023/08/30 09:09:33;;;;;;;10.02;5.50;;;14.80;99.90;;;;;;4861677;28;88029;-78
2023/08/30 09:11:59;;;;;;;6.85;5.22;;;14.80;99.90;;;;;;4878419;28;90500;-77
2023/08/30 09:14:29;;;;;;;8.80;5.00;;;14.80;99.90;;;;;;4863568;28;91334;-78
2023/08/30 09:17:02;;;;;;;11.10;5.22;;;14.90;99.90;;;;;;4856186;28;91686;-78
2023/08/30 09:19:30;;;;;;;9.90;5.80;;;14.90;99.90;;;;;;4862363;28;87303;-77
2023/08/30 09:21:59;;;;;;;12.70;6.25;;;14.90;99.90;;;;;;4862730;28;90563;-76
2023/08/30 09:24:25;;;;;;;6.88;4.88;;;14.90;99.90;;;;;;4863297;28;91047;-77
2023/08/30 09:26:53;;;;;;;9.05;5.25;;;14.90;99.90;;;;;;4861938;28;92526;-76
2023/08/30 09:29:21;;;;;;;7.45;5.00;;;15.00;99.90;;;;;;4877989;28;87512;-77
2023/08/30 09:31:52;;;;;;;6.85;5.00;;;15.00;99.90;;;;;;4879888;28;87471;-77
2023/08/30 09:34:23;;;;;;;7.40;5.28;;;15.00;99.90;;;;;;4862429;28;90603;-77
2023/08/30 09:36:50;;;;;;;7.55;5.05;;;15.00;99.90;;;;;;4881801;28;88450;-77
2023/08/30 09:39:15;;;;;;;10.02;5.75;;;15.00;99.90;;;;;;4862715;28;87572;-77
2023/08/30 09:41:42;;;;;;;9.45;5.00;;;15.00;99.90;;;;;;4879705;28;87469;-77
2023/08/30 09:44:18;;;;;;;10.55;5.30;;;15.00;99.90;;;;;;4863221;28;90815;-76
2023/08/30 09:46:55;;;;;;;7.53;5.10;;;15.10;99.90;;;;;;4875132;28;91429;-79
2023/08/30 09:49:28;;;;;;;8.93;5.35;;;15.10;99.90;;;;;;4866799;28;88644;-80
2023/08/30 09:54:53;;;;;;;9.02;4.68;;;15.20;99.90;;;;;;4887356;28;88217;-79
2023/08/30 09:58:14;;;;;;;;;;;;;;;;;;;;;
2023/08/30 10:01:32;;;;;;;8.07;4.53;;;15.20;99.90;;;;;;4900104;28;110234;-79
2023/08/30 10:18:28;;;;;;;;;;;;;;;;;;;;;
2023/08/30 10:21:17;;;;;;;8.48;3.88;;;15.40;99.90;;;;;;4639417;30;121180;-79
2023/08/30 10:28:22;;;;;;;;;;;;;;;;;;;;;
2023/08/30 10:30:43;;;;;;;5.88;4.00;;;15.60;99.90;;;;;;4736113;29;93040;-76
2023/08/30 10:33:14;;;;;;;5.32;3.78;;;15.70;99.90;;;;;;4816295;28;90367;-76
2023/08/30 10:35:51;;;;;;;4.38;3.35;;;15.70;99.90;;;;;;4878437;28;91864;-76
2023/08/30 10:38:28;;;;;;;3.97;3.15;;;15.70;99.90;;;;;;4896077;28;87767;-76
2023/08/30 10:40:54;;;;;;;3.40;2.70;;;15.70;99.90;;;;;;4896880;28;87009;-76
2023/08/30 10:43:30;;;;;;;5.60;2.70;;;15.70;99.90;;;;;;4895556;28;87825;-77
2023/08/30 10:46:04;;;;;;;2.50;2.30;;;15.80;99.90;;;;;;4880033;28;90605;-76
2023/08/30 10:48:56;;;;;;;4.95;2.65;;;15.80;99.90;;;;;;4897857;28;88434;-76
2023/08/30 10:51:38;;;;;;;2.35;2.15;;;15.80;99.90;;;;;;4894984;28;87611;-76
2023/08/30 10:54:23;;;;;;;3.33;2.30;;;15.90;99.90;;;;;;4895995;28;89204;-75
2023/08/30 10:56:52;;;;;;;1.83;1.65;;;16.00;99.90;;;;;;4896172;28;88995;-76
2023/08/30 10:59:22;;;;;;;1.65;1.55;;;16.00;99.90;;;;;;4886996;28;87694;-76
2023/08/30 11:01:49;;;;;;;2.58;1.65;;;16.00;99.90;;;;;;4878681;28;91085;-76
2023/08/30 11:04:17;;;;;;;1.70;1.55;;;16.00;99.90;;;;;;4876631;28;92189;-76
2023/08/30 11:06:46;;;;;;;1.80;1.50;;;16.10;99.90;;;;;;4895134;28;90500;-76
2023/08/30 11:09:20;;;;;;;1.67;1.35;;;16.10;99.90;;;;;;4878136;28;87553;-76
2023/08/30 11:11:47;;;;;;;2.08;1.70;;;16.10;99.90;;;;;;4894063;28;87129;-76
2023/08/30 11:14:12;;;;;;;1.67;1.40;;;16.20;99.90;;;;;;4894160;28;88492;-76
2023/08/30 11:16:39;;;;;;;2.28;1.40;;;16.30;99.90;;;;;;4894597;28;89215;-76
2023/08/30 11:19:06;;;;;;;1.13;1.05;;;16.30;99.90;;;;;;4879319;28;87757;-77
2023/08/30 11:21:53;;;;;;;1.35;1.10;;;16.40;99.90;;;;;;4877593;28;89720;-76
2023/08/30 11:24:19;;;;;;;1.23;0.90;;;16.40;99.90;;;;;;4878513;28;90964;-76
2023/08/30 11:26:44;;;;;;;1.35;0.98;;;16.40;99.90;;;;;;4892333;28;88304;-76
2023/08/30 11:29:10;;;;;;;1.95;1.30;;;16.40;99.90;;;;;;4886508;28;87542;-76
2023/08/30 11:31:36;;;;;;;1.92;0.95;;;16.50;99.90;;;;;;4892113;28;86872;-74
2023/08/30 11:34:17;;;;;;;1.85;1.08;;;16.50;99.90;;;;;;4871085;28;90953;-76
2023/08/30 11:36:43;;;;;;;1.48;1.08;;;16.60;99.90;;;;;;4854456;28;96058;-77
2023/08/30 11:39:10;;;;;;;1.60;1.33;;;16.50;99.90;;;;;;4864650;28;89505;-77
2023/08/30 11:41:48;;;;;;;1.08;0.93;;;16.60;99.90;;;;;;4879990;28;87542;-77
2023/08/30 11:44:14;;;;;;;1.85;1.30;;;16.70;99.90;;;;;;4870595;28;90468;-77
2023/08/30 11:46:39;;;;;;;2.10;1.20;;;16.70;99.90;;;;;;4878045;28;88549;-77
2023/08/30 11:49:05;;;;;;;3.72;1.30;;;16.70;99.90;;;;;;4870729;28;87590;-77
2023/08/30 11:51:32;;;;;;;1.67;1.35;;;16.70;99.90;;;;;;4877792;28;90551;-78
2023/08/30 11:53:58;;;;;;;1.50;1.40;;;16.80;99.90;;;;;;4872249;28;91997;-77
2023/08/30 11:56:25;;;;;;;3.83;1.80;;;16.80;99.90;;;;;;4876722;28;90780;-77
2023/08/30 11:58:51;;;;;;;3.80;2.13;;;16.90;99.90;;;;;;4886363;28;87497;-77
2023/08/30 12:01:18;;;;;;;2.28;1.80;;;16.90;99.90;;;;;;4884367;28;87886;-77
2023/08/30 12:03:50;;;;;;;2.60;1.83;;;17.00;99.90;;;;;;4870211;28;91487;-77
2023/08/30 12:06:16;;;;;;;3.28;1.92;;;17.00;99.90;;;;;;4873105;28;93301;-77
2023/08/30 12:08:42;;;;;;;3.03;1.60;;;17.00;99.90;;;;;;4872463;28;87171;-77
2023/08/30 12:11:20;;;;;;;4.32;1.90;;;17.00;99.90;;;;;;4884158;28;87934;-77
2023/08/30 12:13:47;;;;;;;4.13;2.38;;;17.10;99.90;;;;;;4889166;28;88053;-78
2023/08/30 12:16:17;;;;;;;4.40;2.38;;;17.10;99.90;;;;;;4863290;28;91424;-76
2023/08/30 12:18:43;;;;;;;5.00;2.72;;;17.10;99.90;;;;;;4869571;28;87759;-77
2023/08/30 12:21:09;;;;;;;2.40;2.05;;;17.00;99.90;;;;;;4872128;28;90896;-77
2023/08/30 12:23:36;;;;;;;2.33;2.10;;;17.00;99.90;;;;;;4878253;28;91374;-77
2023/08/30 12:26:05;;;;;;;2.80;2.00;;;17.00;99.90;;;;;;4866751;28;90590;-77
2023/08/30 12:28:34;;;;;;;3.40;2.10;;;17.00;99.90;;;;;;4895709;28;88883;-77
2023/08/30 12:30:59;;;;;;;6.25;2.42;;;16.90;99.90;;;;;;4877026;28;90686;-77
2023/08/30 12:33:25;;;;;;;2.60;2.30;;;17.00;99.90;;;;;;4880202;28;91414;-76
2023/08/30 12:35:52;;;;;;;2.47;1.70;;;17.00;99.90;;;;;;4884520;28;92024;-77
2023/08/30 12:38:18;;;;;;;4.25;2.13;;;17.00;99.90;;;;;;4883934;28;87905;-78
2023/08/30 12:40:52;;;;;;;3.03;2.15;;;17.00;99.90;;;;;;4886278;28;91028;-77
2023/08/30 12:43:19;;;;;;;2.28;1.95;;;17.00;99.80;;;;;;4886421;28;88288;-76
2023/08/30 12:45:45;;;;;;;2.80;1.75;;;17.10;99.70;;;;;;4904744;28;88237;-77
2023/08/30 12:48:14;;;;;;;2.85;2.03;;;17.10;99.40;;;;;;4877704;28;87923;-77
2023/08/30 12:50:39;;;;;;;3.08;2.10;;;17.20;99.90;;;;;;4893890;28;89646;-77
2023/08/30 12:53:06;;;;;;;2.58;2.33;;;17.40;99.90;;;;;;4892955;28;89800;-77
2023/08/30 12:55:32;;;;;;;3.25;2.25;;;17.50;99.90;;;;;;4883418;28;90496;-77
2023/08/30 12:57:58;;;;;;;3.20;2.65;;;17.70;99.90;;;;;;4883783;28;87543;-77
2023/08/30 13:00:24;;;;;;;5.22;3.03;;;17.80;99.90;;;;;;4872265;28;90511;-77
2023/08/30 13:02:50;;;;;;;3.65;3.08;;;17.90;99.30;;;;;;4882573;28;91067;-77
2023/08/30 13:05:16;;;;;;;4.22;3.28;;;17.90;99.20;;;;;;4877935;28;90991;-76
2023/08/30 13:08:21;;;;;;;;;;;;;;;;;;;;;